sensor_id;sensor_type;location;lat;lon;timestamp;P1;durP1;ratioP1;P2;durP2;ratioP2
7150;SDS011;3617;48.836;9.172;2024-01-27T00:02:01;2.33;;;1.70;;
7150;SDS011;3617;48.836;9.172;2024-01-27T00:04:27;1.63;;;1.53;;
7150;SDS011;3617;48.836;9.172;2024-01-27T00:06:53;1.90;;;1.70;;
7150;SDS011;3617;48.836;9.172;2024-01-27T00:09:19;4.50;;;2.13;;
7150;SDS011;3617;48.836;9.172;2024-01-27T00:11:45;1.57;;;1.20;;
7150;SDS011;3617;48.836;9.172;2024-01-27T00:14:11;1.73;;;1.63;;
7150;SDS011;3617;48.836;9.172;2024-01-27T00:16:37;1.47;;;1.33;;
7150;SDS011;3617;48.836;9.172;2024-01-27T00:19:03;1.70;;;1.20;;
7150;SDS011;3617;48.836;9.172;2024-01-27T00:21:29;2.60;;;1.27;;
7150;SDS011;3617;48.836;9.172;2024-01-27T00:23:55;1.50;;;1.40;;
7150;SDS011;3617;48.836;9.172;2024-01-27T00:26:25;2.57;;;1.63;;
7150;SDS011;3617;48.836;9.172;2024-01-27T00:28:51;4.33;;;1.40;;
7150;SDS011;3617;48.836;9.172;2024-01-27T00:31:17;2.17;;;1.40;;
7150;SDS011;3617;48.836;9.172;2024-01-27T00:33:43;2.50;;;1.77;;
7150;SDS011;3617;48.836;9.172;2024-01-27T00:36:09;1.13;;;1.13;;
7150;SDS011;3617;48.836;9.172;2024-01-27T00:38:35;4.63;;;1.47;;
7150;SDS011;3617;48.836;9.172;2024-01-27T00:41:01;9.13;;;1.50;;
7150;SDS011;3617;48.836;9.172;2024-01-27T00:43:27;6.53;;;2.10;;
7150;SDS011;3617;48.836;9.172;2024-01-27T00:45:53;1.40;;;1.30;;
7150;SDS011;3617;48.836;9.172;2024-01-27T00:48:19;1.50;;;1.40;;
7150;SDS011;3617;48.836;9.172;2024-01-27T00:50:45;1.77;;;1.43;;
7150;SDS011;3617;48.836;9.172;2024-01-27T00:53:11;1.63;;;1.37;;
7150;SDS011;3617;48.836;9.172;2024-01-27T00:55:37;1.17;;;1.10;;
7150;SDS011;3617;48.836;9.172;2024-01-27T00:58:03;2.60;;;1.77;;
7150;SDS011;3617;48.836;9.172;2024-01-27T01:00:29;2.83;;;1.33;;
7150;SDS011;3617;48.836;9.172;2024-01-27T01:02:55;1.93;;;1.73;;
7150;SDS011;3617;48.836;9.172;2024-01-27T01:05:21;2.00;;;1.40;;
7150;SDS011;3617;48.836;9.172;2024-01-27T01:07:47;1.50;;;1.40;;
7150;SDS011;3617;48.836;9.172;2024-01-27T01:10:13;2.20;;;1.63;;
7150;SDS011;3617;48.836;9.172;2024-01-27T01:12:39;3.10;;;1.50;;
7150;SDS011;3617;48.836;9.172;2024-01-27T01:15:05;5.53;;;1.73;;
7150;SDS011;3617;48.836;9.172;2024-01-27T01:17:31;1.50;;;1.40;;
7150;SDS011;3617;48.836;9.172;2024-01-27T01:19:57;4.57;;;1.40;;
7150;SDS011;3617;48.836;9.172;2024-01-27T01:22:23;1.60;;;1.50;;
7150;SDS011;3617;48.836;9.172;2024-01-27T01:24:49;2.23;;;1.43;;
7150;SDS011;3617;48.836;9.172;2024-01-27T01:27:15;2.00;;;1.80;;
7150;SDS011;3617;48.836;9.172;2024-01-27T01:29:43;1.07;;;1.00;;
7150;SDS011;3617;48.836;9.172;2024-01-27T01:32:09;1.60;;;1.40;;
7150;SDS011;3617;48.836;9.172;2024-01-27T01:34:35;1.83;;;1.37;;
7150;SDS011;3617;48.836;9.172;2024-01-27T01:37:01;1.80;;;1.57;;
7150;SDS011;3617;48.836;9.172;2024-01-27T01:39:27;3.13;;;1.20;;
7150;SDS011;3617;48.836;9.172;2024-01-27T01:41:54;2.20;;;1.80;;
7150;SDS011;3617;48.836;9.172;2024-01-27T01:44:20;1.30;;;1.20;;
7150;SDS011;3617;48.836;9.172;2024-01-27T01:46:46;1.63;;;1.47;;
7150;SDS011;3617;48.836;9.172;2024-01-27T01:49:12;1.97;;;1.70;;
7150;SDS011;3617;48.836;9.172;2024-01-27T01:51:38;1.60;;;1.50;;
7150;SDS011;3617;48.836;9.172;2024-01-27T01:54:04;1.67;;;1.33;;
7150;SDS011;3617;48.836;9.172;2024-01-27T01:56:30;1.57;;;1.43;;
7150;SDS011;3617;48.836;9.172;2024-01-27T01:58:57;3.40;;;1.57;;
7150;SDS011;3617;48.836;9.172;2024-01-27T02:01:23;1.83;;;1.70;;
7150;SDS011;3617;48.836;9.172;2024-01-27T02:03:52;1.97;;;1.77;;
7150;SDS011;3617;48.836;9.172;2024-01-27T02:06:18;1.50;;;1.40;;
7150;SDS011;3617;48.836;9.172;2024-01-27T02:08:44;2.10;;;1.97;;
7150;SDS011;3617;48.836;9.172;2024-01-27T02:11:10;2.07;;;1.70;;
7150;SDS011;3617;48.836;9.172;2024-01-27T02:13:36;2.17;;;1.73;;
7150;SDS011;3617;48.836;9.172;2024-01-27T02:16:02;1.80;;;1.70;;
7150;SDS011;3617;48.836;9.172;2024-01-27T02:18:28;1.50;;;1.40;;
7150;SDS011;3617;48.836;9.172;2024-01-27T02:20:54;1.87;;;1.70;;
7150;SDS011;3617;48.836;9.172;2024-01-27T02:23:20;2.37;;;1.23;;
7150;SDS011;3617;48.836;9.172;2024-01-27T02:25:46;2.80;;;2.03;;
7150;SDS011;3617;48.836;9.172;2024-01-27T02:28:12;2.87;;;1.90;;
7150;SDS011;3617;48.836;9.172;2024-01-27T02:30:38;3.73;;;2.00;;
7150;SDS011;3617;48.836;9.172;2024-01-27T02:33:04;2.87;;;2.00;;
7150;SDS011;3617;48.836;9.172;2024-01-27T02:35:30;3.17;;;1.93;;
7150;SDS011;3617;48.836;9.172;2024-01-27T02:37:56;1.73;;;1.53;;
7150;SDS011;3617;48.836;9.172;2024-01-27T02:40:22;1.67;;;1.57;;
7150;SDS011;3617;48.836;9.172;2024-01-27T02:42:48;1.50;;;1.40;;
7150;SDS011;3617;48.836;9.172;2024-01-27T02:45:14;2.57;;;1.83;;
7150;SDS011;3617;48.836;9.172;2024-01-27T02:47:40;2.00;;;1.60;;
7150;SDS011;3617;48.836;9.172;2024-01-27T02:50:06;1.60;;;1.50;;
7150;SDS011;3617;48.836;9.172;2024-01-27T02:52:32;1.47;;;1.37;;
7150;SDS011;3617;48.836;9.172;2024-01-27T02:54:58;1.57;;;1.30;;
7150;SDS011;3617;48.836;9.172;2024-01-27T02:57:24;1.60;;;1.33;;
7150;SDS011;3617;48.836;9.172;2024-01-27T02:59:50;2.10;;;1.90;;
7150;SDS011;3617;48.836;9.172;2024-01-27T03:02:16;3.50;;;2.00;;
7150;SDS011;3617;48.836;9.172;2024-01-27T03:04:42;1.87;;;1.67;;
7150;SDS011;3617;48.836;9.172;2024-01-27T03:07:08;2.03;;;1.80;;
7150;SDS011;3617;48.836;9.172;2024-01-27T03:09:35;1.70;;;1.60;;
7150;SDS011;3617;48.836;9.172;2024-01-27T03:12:01;1.87;;;1.77;;
7150;SDS011;3617;48.836;9.172;2024-01-27T03:14:27;1.60;;;1.50;;
7150;SDS011;3617;48.836;9.172;2024-01-27T03:16:54;2.23;;;1.40;;
7150;SDS011;3617;48.836;9.172;2024-01-27T03:19:20;1.60;;;1.50;;
7150;SDS011;3617;48.836;9.172;2024-01-27T03:21:46;2.20;;;1.70;;
7150;SDS011;3617;48.836;9.172;2024-01-27T03:24:12;1.53;;;1.43;;
7150;SDS011;3617;48.836;9.172;2024-01-27T03:26:38;2.10;;;1.30;;
7150;SDS011;3617;48.836;9.172;2024-01-27T03:29:04;1.60;;;1.50;;
7150;SDS011;3617;48.836;9.172;2024-01-27T03:31:30;1.30;;;1.20;;
7150;SDS011;3617;48.836;9.172;2024-01-27T03:33:58;3.53;;;1.60;;
7150;SDS011;3617;48.836;9.172;2024-01-27T03:36:24;3.30;;;1.17;;
7150;SDS011;3617;48.836;9.172;2024-01-27T03:38:50;8.90;;;1.80;;
7150;SDS011;3617;48.836;9.172;2024-01-27T03:41:16;2.47;;;1.50;;
7150;SDS011;3617;48.836;9.172;2024-01-27T03:43:42;2.10;;;1.40;;
7150;SDS011;3617;48.836;9.172;2024-01-27T03:46:08;4.93;;;2.57;;
7150;SDS011;3617;48.836;9.172;2024-01-27T03:48:34;4.00;;;1.73;;
7150;SDS011;3617;48.836;9.172;2024-01-27T03:51:00;2.10;;;1.83;;
7150;SDS011;3617;48.836;9.172;2024-01-27T03:53:26;1.53;;;1.43;;
7150;SDS011;3617;48.836;9.172;2024-01-27T03:55:52;1.60;;;1.50;;
7150;SDS011;3617;48.836;9.172;2024-01-27T03:58:18;1.60;;;1.40;;
7150;SDS011;3617;48.836;9.172;2024-01-27T04:00:44;1.70;;;1.60;;
7150;SDS011;3617;48.836;9.172;2024-01-27T04:03:10;2.13;;;1.67;;
7150;SDS011;3617;48.836;9.172;2024-01-27T04:05:36;1.67;;;1.50;;
7150;SDS011;3617;48.836;9.172;2024-01-27T04:08:04;1.57;;;1.47;;
7150;SDS011;3617;48.836;9.172;2024-01-27T04:10:30;1.43;;;1.33;;
7150;SDS011;3617;48.836;9.172;2024-01-27T04:12:56;1.67;;;1.57;;
7150;SDS011;3617;48.836;9.172;2024-01-27T04:15:22;1.50;;;1.30;;
7150;SDS011;3617;48.836;9.172;2024-01-27T04:17:48;1.80;;;1.70;;
7150;SDS011;3617;48.836;9.172;2024-01-27T04:20:14;1.67;;;1.57;;
7150;SDS011;3617;48.836;9.172;2024-01-27T04:22:41;3.27;;;1.63;;
7150;SDS011;3617;48.836;9.172;2024-01-27T04:25:07;2.13;;;1.67;;
7150;SDS011;3617;48.836;9.172;2024-01-27T04:27:36;1.87;;;1.40;;
7150;SDS011;3617;48.836;9.172;2024-01-27T04:30:03;3.37;;;1.53;;
7150;SDS011;3617;48.836;9.172;2024-01-27T04:32:29;3.00;;;1.63;;
7150;SDS011;3617;48.836;9.172;2024-01-27T04:34:55;1.97;;;1.80;;
7150;SDS011;3617;48.836;9.172;2024-01-27T04:37:21;2.23;;;1.80;;
7150;SDS011;3617;48.836;9.172;2024-01-27T04:39:47;1.73;;;1.47;;
7150;SDS011;3617;48.836;9.172;2024-01-27T04:42:13;2.47;;;1.90;;
7150;SDS011;3617;48.836;9.172;2024-01-27T04:44:40;2.10;;;1.90;;
7150;SDS011;3617;48.836;9.172;2024-01-27T04:47:06;2.37;;;2.03;;
7150;SDS011;3617;48.836;9.172;2024-01-27T04:49:32;4.40;;;1.87;;
7150;SDS011;3617;48.836;9.172;2024-01-27T04:51:58;1.73;;;1.63;;
7150;SDS011;3617;48.836;9.172;2024-01-27T04:54:24;1.47;;;1.37;;
7150;SDS011;3617;48.836;9.172;2024-01-27T04:56:50;3.03;;;1.90;;
7150;SDS011;3617;48.836;9.172;2024-01-27T04:59:16;2.30;;;1.63;;
7150;SDS011;3617;48.836;9.172;2024-01-27T05:01:46;3.00;;;2.17;;
7150;SDS011;3617;48.836;9.172;2024-01-27T05:04:12;3.53;;;1.83;;
7150;SDS011;3617;48.836;9.172;2024-01-27T05:06:38;2.13;;;1.30;;
7150;SDS011;3617;48.836;9.172;2024-01-27T05:09:04;2.37;;;2.17;;
7150;SDS011;3617;48.836;9.172;2024-01-27T05:11:33;1.87;;;1.70;;
7150;SDS011;3617;48.836;9.172;2024-01-27T05:13:59;2.07;;;1.93;;
7150;SDS011;3617;48.836;9.172;2024-01-27T05:16:25;2.17;;;1.60;;
7150;SDS011;3617;48.836;9.172;2024-01-27T05:18:51;2.03;;;1.40;;
7150;SDS011;3617;48.836;9.172;2024-01-27T05:21:17;1.67;;;1.37;;
7150;SDS011;3617;48.836;9.172;2024-01-27T05:23:43;1.83;;;1.33;;
7150;SDS011;3617;48.836;9.172;2024-01-27T05:26:09;1.97;;;1.43;;
7150;SDS011;3617;48.836;9.172;2024-01-27T05:28:36;1.60;;;1.50;;
7150;SDS011;3617;48.836;9.172;2024-01-27T05:31:03;2.40;;;1.73;;
7150;SDS011;3617;48.836;9.172;2024-01-27T05:33:29;4.10;;;2.07;;
7150;SDS011;3617;48.836;9.172;2024-01-27T05:35:55;3.00;;;1.70;;
7150;SDS011;3617;48.836;9.172;2024-01-27T05:38:21;2.60;;;1.90;;
7150;SDS011;3617;48.836;9.172;2024-01-27T05:40:47;2.03;;;1.50;;
7150;SDS011;3617;48.836;9.172;2024-01-27T05:43:14;2.20;;;2.00;;
7150;SDS011;3617;48.836;9.172;2024-01-27T05:45:40;1.83;;;1.70;;
7150;SDS011;3617;48.836;9.172;2024-01-27T05:48:06;1.43;;;1.33;;
7150;SDS011;3617;48.836;9.172;2024-01-27T05:50:33;2.30;;;2.10;;
7150;SDS011;3617;48.836;9.172;2024-01-27T05:53:00;5.27;;;2.30;;
7150;SDS011;3617;48.836;9.172;2024-01-27T05:55:26;3.73;;;1.83;;
7150;SDS011;3617;48.836;9.172;2024-01-27T05:57:52;1.63;;;1.53;;
7150;SDS011;3617;48.836;9.172;2024-01-27T06:00:20;6.60;;;3.03;;
7150;SDS011;3617;48.836;9.172;2024-01-27T06:02:46;2.40;;;1.77;;
7150;SDS011;3617;48.836;9.172;2024-01-27T06:05:12;2.37;;;1.93;;
7150;SDS011;3617;48.836;9.172;2024-01-27T06:07:38;3.63;;;2.50;;
7150;SDS011;3617;48.836;9.172;2024-01-27T06:10:06;5.83;;;3.13;;
7150;SDS011;3617;48.836;9.172;2024-01-27T06:12:32;3.20;;;2.23;;
7150;SDS011;3617;48.836;9.172;2024-01-27T06:14:59;5.27;;;2.33;;
7150;SDS011;3617;48.836;9.172;2024-01-27T06:17:25;3.00;;;2.00;;
7150;SDS011;3617;48.836;9.172;2024-01-27T06:19:51;2.83;;;2.30;;
7150;SDS011;3617;48.836;9.172;2024-01-27T06:22:17;4.63;;;2.60;;
7150;SDS011;3617;48.836;9.172;2024-01-27T06:24:43;1.77;;;1.63;;
7150;SDS011;3617;48.836;9.172;2024-01-27T06:27:10;1.70;;;1.60;;
7150;SDS011;3617;48.836;9.172;2024-01-27T06:29:36;4.33;;;2.17;;
7150;SDS011;3617;48.836;9.172;2024-01-27T06:32:02;1.97;;;1.63;;
7150;SDS011;3617;48.836;9.172;2024-01-27T06:34:28;2.63;;;1.83;;
7150;SDS011;3617;48.836;9.172;2024-01-27T06:36:54;1.50;;;1.40;;
7150;SDS011;3617;48.836;9.172;2024-01-27T06:39:20;2.87;;;1.97;;
7150;SDS011;3617;48.836;9.172;2024-01-27T06:41:46;1.47;;;1.37;;
7150;SDS011;3617;48.836;9.172;2024-01-27T06:44:12;1.80;;;1.67;;
7150;SDS011;3617;48.836;9.172;2024-01-27T06:46:38;1.30;;;1.20;;
7150;SDS011;3617;48.836;9.172;2024-01-27T06:49:05;1.77;;;1.67;;
7150;SDS011;3617;48.836;9.172;2024-01-27T06:51:31;1.53;;;1.43;;
7150;SDS011;3617;48.836;9.172;2024-01-27T06:53:56;2.00;;;1.63;;
7150;SDS011;3617;48.836;9.172;2024-01-27T06:56:22;1.57;;;1.47;;
7150;SDS011;3617;48.836;9.172;2024-01-27T06:58:48;1.87;;;1.67;;
7150;SDS011;3617;48.836;9.172;2024-01-27T07:01:14;1.87;;;1.77;;
7150;SDS011;3617;48.836;9.172;2024-01-27T07:03:40;2.90;;;1.73;;
7150;SDS011;3617;48.836;9.172;2024-01-27T07:06:06;2.23;;;2.03;;
7150;SDS011;3617;48.836;9.172;2024-01-27T07:08:32;2.33;;;2.10;;
7150;SDS011;3617;48.836;9.172;2024-01-27T07:10:58;1.97;;;1.87;;
7150;SDS011;3617;48.836;9.172;2024-01-27T07:13:24;2.57;;;1.93;;
7150;SDS011;3617;48.836;9.172;2024-01-27T07:15:54;2.13;;;2.00;;
7150;SDS011;3617;48.836;9.172;2024-01-27T07:18:20;2.17;;;1.60;;
7150;SDS011;3617;48.836;9.172;2024-01-27T07:20:47;2.30;;;2.10;;
7150;SDS011;3617;48.836;9.172;2024-01-27T07:23:13;1.67;;;1.57;;
7150;SDS011;3617;48.836;9.172;2024-01-27T07:25:39;3.43;;;1.93;;
7150;SDS011;3617;48.836;9.172;2024-01-27T07:28:05;2.07;;;1.97;;
7150;SDS011;3617;48.836;9.172;2024-01-27T07:30:31;2.70;;;2.20;;
7150;SDS011;3617;48.836;9.172;2024-01-27T07:32:57;3.37;;;1.60;;
7150;SDS011;3617;48.836;9.172;2024-01-27T07:35:23;6.53;;;2.17;;
7150;SDS011;3617;48.836;9.172;2024-01-27T07:37:49;2.43;;;1.57;;
7150;SDS011;3617;48.836;9.172;2024-01-27T07:40:15;2.63;;;1.90;;
7150;SDS011;3617;48.836;9.172;2024-01-27T07:42:41;3.20;;;1.70;;
7150;SDS011;3617;48.836;9.172;2024-01-27T07:45:07;1.83;;;1.73;;
7150;SDS011;3617;48.836;9.172;2024-01-27T07:47:33;1.80;;;1.70;;
7150;SDS011;3617;48.836;9.172;2024-01-27T07:49:59;2.10;;;1.50;;
7150;SDS011;3617;48.836;9.172;2024-01-27T07:52:25;3.33;;;2.10;;
7150;SDS011;3617;48.836;9.172;2024-01-27T07:54:51;2.30;;;2.10;;
7150;SDS011;3617;48.836;9.172;2024-01-27T07:57:19;3.27;;;1.93;;
7150;SDS011;3617;48.836;9.172;2024-01-27T07:59:45;2.90;;;2.20;;
7150;SDS011;3617;48.836;9.172;2024-01-27T08:02:11;1.43;;;1.33;;
7150;SDS011;3617;48.836;9.172;2024-01-27T08:04:37;3.07;;;2.13;;
7150;SDS011;3617;48.836;9.172;2024-01-27T08:07:03;2.60;;;1.53;;
7150;SDS011;3617;48.836;9.172;2024-01-27T08:09:35;6.23;;;2.67;;
7150;SDS011;3617;48.836;9.172;2024-01-27T08:12:01;4.63;;;2.57;;
7150;SDS011;3617;48.836;9.172;2024-01-27T08:14:29;2.40;;;2.20;;
7150;SDS011;3617;48.836;9.172;2024-01-27T08:16:56;2.90;;;2.13;;
7150;SDS011;3617;48.836;9.172;2024-01-27T08:19:23;4.37;;;2.17;;
7150;SDS011;3617;48.836;9.172;2024-01-27T08:21:48;3.57;;;2.93;;
7150;SDS011;3617;48.836;9.172;2024-01-27T08:24:14;2.90;;;2.60;;
7150;SDS011;3617;48.836;9.172;2024-01-27T08:26:40;2.60;;;2.40;;
7150;SDS011;3617;48.836;9.172;2024-01-27T08:29:11;11.10;;;3.33;;
7150;SDS011;3617;48.836;9.172;2024-01-27T08:31:37;3.10;;;2.80;;
7150;SDS011;3617;48.836;9.172;2024-01-27T08:34:03;3.00;;;2.33;;
7150;SDS011;3617;48.836;9.172;2024-01-27T08:36:30;4.80;;;2.60;;
7150;SDS011;3617;48.836;9.172;2024-01-27T08:38:56;5.33;;;2.67;;
7150;SDS011;3617;48.836;9.172;2024-01-27T08:41:22;4.87;;;2.70;;
7150;SDS011;3617;48.836;9.172;2024-01-27T08:43:48;3.50;;;2.57;;
7150;SDS011;3617;48.836;9.172;2024-01-27T08:46:14;3.87;;;2.63;;
7150;SDS011;3617;48.836;9.172;2024-01-27T08:48:42;4.70;;;3.13;;
7150;SDS011;3617;48.836;9.172;2024-01-27T08:51:09;9.90;;;3.10;;
7150;SDS011;3617;48.836;9.172;2024-01-27T08:53:35;3.40;;;2.63;;
7150;SDS011;3617;48.836;9.172;2024-01-27T08:56:01;5.50;;;3.17;;
7150;SDS011;3617;48.836;9.172;2024-01-27T08:58:27;5.10;;;3.33;;
7150;SDS011;3617;48.836;9.172;2024-01-27T09:00:53;4.17;;;3.20;;
7150;SDS011;3617;48.836;9.172;2024-01-27T09:03:19;5.47;;;3.20;;
7150;SDS011;3617;48.836;9.172;2024-01-27T09:05:48;5.50;;;2.67;;
7150;SDS011;3617;48.836;9.172;2024-01-27T09:08:14;8.27;;;3.40;;
7150;SDS011;3617;48.836;9.172;2024-01-27T09:10:41;4.07;;;2.73;;
7150;SDS011;3617;48.836;9.172;2024-01-27T09:13:08;3.93;;;2.50;;
7150;SDS011;3617;48.836;9.172;2024-01-27T09:15:33;4.60;;;2.53;;
7150;SDS011;3617;48.836;9.172;2024-01-27T09:17:59;3.50;;;2.67;;
7150;SDS011;3617;48.836;9.172;2024-01-27T09:20:25;3.83;;;2.80;;
7150;SDS011;3617;48.836;9.172;2024-01-27T09:22:51;3.73;;;2.77;;
7150;SDS011;3617;48.836;9.172;2024-01-27T09:25:17;6.30;;;3.30;;
7150;SDS011;3617;48.836;9.172;2024-01-27T09:27:43;3.93;;;2.77;;
7150;SDS011;3617;48.836;9.172;2024-01-27T09:30:09;2.90;;;2.40;;
7150;SDS011;3617;48.836;9.172;2024-01-27T09:32:35;3.77;;;2.83;;
7150;SDS011;3617;48.836;9.172;2024-01-27T09:35:01;5.30;;;2.97;;
7150;SDS011;3617;48.836;9.172;2024-01-27T09:37:27;5.43;;;3.17;;
7150;SDS011;3617;48.836;9.172;2024-01-27T09:39:53;4.03;;;2.83;;
7150;SDS011;3617;48.836;9.172;2024-01-27T09:42:20;5.43;;;3.15;;
7150;SDS011;3617;48.836;9.172;2024-01-27T09:44:48;2.78;;;2.35;;
7150;SDS011;3617;48.836;9.172;2024-01-27T09:47:14;5.68;;;3.00;;
7150;SDS011;3617;48.836;9.172;2024-01-27T09:49:40;3.28;;;2.47;;
7150;SDS011;3617;48.836;9.172;2024-01-27T09:52:07;7.75;;;3.28;;
7150;SDS011;3617;48.836;9.172;2024-01-27T09:54:34;4.25;;;2.30;;
7150;SDS011;3617;48.836;9.172;2024-01-27T09:57:01;2.60;;;2.22;;
7150;SDS011;3617;48.836;9.172;2024-01-27T09:59:27;5.82;;;2.45;;
7150;SDS011;3617;48.836;9.172;2024-01-27T10:01:53;2.30;;;2.05;;
7150;SDS011;3617;48.836;9.172;2024-01-27T10:04:19;4.15;;;2.58;;
7150;SDS011;3617;48.836;9.172;2024-01-27T10:06:47;3.38;;;2.40;;
7150;SDS011;3617;48.836;9.172;2024-01-27T10:09:15;4.00;;;2.45;;
7150;SDS011;3617;48.836;9.172;2024-01-27T10:11:42;3.70;;;2.53;;
7150;SDS011;3617;48.836;9.172;2024-01-27T10:14:10;8.48;;;3.08;;
7150;SDS011;3617;48.836;9.172;2024-01-27T10:16:41;6.47;;;2.90;;
7150;SDS011;3617;48.836;9.172;2024-01-27T10:19:07;6.53;;;3.30;;
7150;SDS011;3617;48.836;9.172;2024-01-27T10:21:38;5.40;;;3.40;;
7150;SDS011;3617;48.836;9.172;2024-01-27T10:24:04;4.43;;;2.90;;
7150;SDS011;3617;48.836;9.172;2024-01-27T10:26:31;2.72;;;2.40;;
7150;SDS011;3617;48.836;9.172;2024-01-27T10:28:58;5.68;;;2.65;;
7150;SDS011;3617;48.836;9.172;2024-01-27T10:31:28;5.40;;;2.65;;
7150;SDS011;3617;48.836;9.172;2024-01-27T10:33:55;3.45;;;2.20;;
7150;SDS011;3617;48.836;9.172;2024-01-27T10:36:22;3.35;;;2.50;;
7150;SDS011;3617;48.836;9.172;2024-01-27T10:38:48;6.43;;;2.70;;
7150;SDS011;3617;48.836;9.172;2024-01-27T10:41:17;5.47;;;2.75;;
7150;SDS011;3617;48.836;9.172;2024-01-27T10:43:46;4.30;;;2.50;;
7150;SDS011;3617;48.836;9.172;2024-01-27T10:46:13;6.18;;;2.80;;
7150;SDS011;3617;48.836;9.172;2024-01-27T10:48:40;4.95;;;2.20;;
7150;SDS011;3617;48.836;9.172;2024-01-27T10:51:07;3.33;;;2.22;;
7150;SDS011;3617;48.836;9.172;2024-01-27T10:53:34;3.63;;;2.65;;
7150;SDS011;3617;48.836;9.172;2024-01-27T10:56:02;3.30;;;2.38;;
7150;SDS011;3617;48.836;9.172;2024-01-27T10:58:33;3.33;;;2.38;;
7150;SDS011;3617;48.836;9.172;2024-01-27T11:01:05;5.03;;;2.35;;
7150;SDS011;3617;48.836;9.172;2024-01-27T11:03:33;2.95;;;2.20;;
7150;SDS011;3617;48.836;9.172;2024-01-27T11:05:59;3.00;;;1.80;;
7150;SDS011;3617;48.836;9.172;2024-01-27T11:08:25;4.53;;;2.60;;
7150;SDS011;3617;48.836;9.172;2024-01-27T11:10:53;2.60;;;2.03;;
7150;SDS011;3617;48.836;9.172;2024-01-27T11:13:19;2.10;;;1.70;;
7150;SDS011;3617;48.836;9.172;2024-01-27T11:15:52;4.03;;;2.37;;
7150;SDS011;3617;48.836;9.172;2024-01-27T11:18:18;6.10;;;2.17;;
7150;SDS011;3617;48.836;9.172;2024-01-27T11:20:44;4.57;;;1.97;;
7150;SDS011;3617;48.836;9.172;2024-01-27T11:23:11;2.40;;;1.70;;
7150;SDS011;3617;48.836;9.172;2024-01-27T11:25:39;2.07;;;1.67;;
7150;SDS011;3617;48.836;9.172;2024-01-27T11:28:12;4.10;;;1.60;;
7150;SDS011;3617;48.836;9.172;2024-01-27T11:30:39;3.80;;;1.93;;
7150;SDS011;3617;48.836;9.172;2024-01-27T11:33:05;4.00;;;1.90;;
7150;SDS011;3617;48.836;9.172;2024-01-27T11:35:31;2.93;;;1.70;;
7150;SDS011;3617;48.836;9.172;2024-01-27T11:37:57;3.50;;;1.97;;
7150;SDS011;3617;48.836;9.172;2024-01-27T11:40:23;3.50;;;1.70;;
7150;SDS011;3617;48.836;9.172;2024-01-27T11:42:59;2.37;;;1.53;;
7150;SDS011;3617;48.836;9.172;2024-01-27T11:45:26;4.03;;;1.80;;
7150;SDS011;3617;48.836;9.172;2024-01-27T11:47:55;2.50;;;1.87;;
7150;SDS011;3617;48.836;9.172;2024-01-27T11:50:21;6.10;;;1.70;;
7150;SDS011;3617;48.836;9.172;2024-01-27T11:52:47;3.97;;;2.07;;
7150;SDS011;3617;48.836;9.172;2024-01-27T11:55:14;4.53;;;1.93;;
7150;SDS011;3617;48.836;9.172;2024-01-27T11:57:43;3.10;;;1.93;;
7150;SDS011;3617;48.836;9.172;2024-01-27T12:00:09;2.87;;;1.27;;
7150;SDS011;3617;48.836;9.172;2024-01-27T12:02:36;3.07;;;1.80;;
7150;SDS011;3617;48.836;9.172;2024-01-27T12:05:03;1.60;;;1.50;;
7150;SDS011;3617;48.836;9.172;2024-01-27T12:07:29;3.03;;;2.00;;
7150;SDS011;3617;48.836;9.172;2024-01-27T12:09:55;4.67;;;1.60;;
7150;SDS011;3617;48.836;9.172;2024-01-27T12:12:21;3.07;;;1.90;;
7150;SDS011;3617;48.836;9.172;2024-01-27T12:14:48;3.13;;;1.70;;
7150;SDS011;3617;48.836;9.172;2024-01-27T12:17:15;2.20;;;1.70;;
7150;SDS011;3617;48.836;9.172;2024-01-27T12:19:51;2.03;;;1.80;;
7150;SDS011;3617;48.836;9.172;2024-01-27T12:22:22;3.10;;;1.70;;
7150;SDS011;3617;48.836;9.172;2024-01-27T12:24:48;6.47;;;1.93;;
7150;SDS011;3617;48.836;9.172;2024-01-27T12:27:16;8.63;;;1.87;;
7150;SDS011;3617;48.836;9.172;2024-01-27T12:29:42;3.47;;;1.87;;
7150;SDS011;3617;48.836;9.172;2024-01-27T12:32:08;3.43;;;2.00;;
7150;SDS011;3617;48.836;9.172;2024-01-27T12:34:39;3.13;;;1.73;;
7150;SDS011;3617;48.836;9.172;2024-01-27T12:37:05;2.40;;;1.50;;
7150;SDS011;3617;48.836;9.172;2024-01-27T12:39:33;4.15;;;1.77;;
7150;SDS011;3617;48.836;9.172;2024-01-27T12:41:59;4.72;;;1.70;;
7150;SDS011;3617;48.836;9.172;2024-01-27T12:44:25;1.60;;;1.45;;
7150;SDS011;3617;48.836;9.172;2024-01-27T12:46:51;3.07;;;1.60;;
7150;SDS011;3617;48.836;9.172;2024-01-27T12:49:17;2.40;;;2.10;;
7150;SDS011;3617;48.836;9.172;2024-01-27T12:51:44;2.97;;;1.63;;
7150;SDS011;3617;48.836;9.172;2024-01-27T12:54:10;2.05;;;1.35;;
7150;SDS011;3617;48.836;9.172;2024-01-27T12:56:36;2.60;;;1.90;;
7150;SDS011;3617;48.836;9.172;2024-01-27T12:59:02;2.85;;;1.60;;
7150;SDS011;3617;48.836;9.172;2024-01-27T13:01:30;1.70;;;1.40;;
7150;SDS011;3617;48.836;9.172;2024-01-27T13:03:56;2.33;;;1.63;;
7150;SDS011;3617;48.836;9.172;2024-01-27T13:06:22;4.35;;;1.90;;
7150;SDS011;3617;48.836;9.172;2024-01-27T13:08:48;3.15;;;1.80;;
7150;SDS011;3617;48.836;9.172;2024-01-27T13:11:14;2.95;;;1.90;;
7150;SDS011;3617;48.836;9.172;2024-01-27T13:13:40;2.83;;;1.70;;
7150;SDS011;3617;48.836;9.172;2024-01-27T13:16:06;2.35;;;2.05;;
7150;SDS011;3617;48.836;9.172;2024-01-27T13:18:32;2.55;;;1.63;;
7150;SDS011;3617;48.836;9.172;2024-01-27T13:20:58;3.30;;;1.65;;
7150;SDS011;3617;48.836;9.172;2024-01-27T13:23:24;3.35;;;2.15;;
7150;SDS011;3617;48.836;9.172;2024-01-27T13:25:50;3.65;;;2.15;;
7150;SDS011;3617;48.836;9.172;2024-01-27T13:28:17;5.63;;;2.00;;
7150;SDS011;3617;48.836;9.172;2024-01-27T13:30:43;4.13;;;1.73;;
7150;SDS011;3617;48.836;9.172;2024-01-27T13:33:09;3.07;;;2.00;;
7150;SDS011;3617;48.836;9.172;2024-01-27T13:35:36;2.60;;;1.83;;
7150;SDS011;3617;48.836;9.172;2024-01-27T13:38:02;2.57;;;1.77;;
7150;SDS011;3617;48.836;9.172;2024-01-27T13:40:28;3.23;;;1.93;;
7150;SDS011;3617;48.836;9.172;2024-01-27T13:42:54;2.33;;;1.50;;
7150;SDS011;3617;48.836;9.172;2024-01-27T13:45:20;2.60;;;1.67;;
7150;SDS011;3617;48.836;9.172;2024-01-27T13:47:47;3.50;;;2.07;;
7150;SDS011;3617;48.836;9.172;2024-01-27T13:50:12;2.87;;;1.57;;
7150;SDS011;3617;48.836;9.172;2024-01-27T13:52:38;4.67;;;1.90;;
7150;SDS011;3617;48.836;9.172;2024-01-27T13:55:08;3.67;;;1.80;;
7150;SDS011;3617;48.836;9.172;2024-01-27T13:57:34;5.17;;;1.87;;
7150;SDS011;3617;48.836;9.172;2024-01-27T14:00:00;3.17;;;1.87;;
7150;SDS011;3617;48.836;9.172;2024-01-27T14:02:26;2.37;;;1.80;;
7150;SDS011;3617;48.836;9.172;2024-01-27T14:04:52;2.47;;;1.70;;
7150;SDS011;3617;48.836;9.172;2024-01-27T14:07:18;2.60;;;1.93;;
7150;SDS011;3617;48.836;9.172;2024-01-27T14:09:44;5.83;;;1.60;;
7150;SDS011;3617;48.836;9.172;2024-01-27T14:12:10;3.17;;;2.07;;
7150;SDS011;3617;48.836;9.172;2024-01-27T14:14:36;2.43;;;1.73;;
7150;SDS011;3617;48.836;9.172;2024-01-27T14:17:05;4.60;;;2.10;;
7150;SDS011;3617;48.836;9.172;2024-01-27T14:19:31;3.20;;;1.90;;
7150;SDS011;3617;48.836;9.172;2024-01-27T14:21:57;4.93;;;1.70;;
7150;SDS011;3617;48.836;9.172;2024-01-27T14:24:23;4.07;;;1.60;;
7150;SDS011;3617;48.836;9.172;2024-01-27T14:26:49;3.00;;;2.40;;
7150;SDS011;3617;48.836;9.172;2024-01-27T14:29:15;3.97;;;1.73;;
7150;SDS011;3617;48.836;9.172;2024-01-27T14:31:42;3.10;;;1.50;;
7150;SDS011;3617;48.836;9.172;2024-01-27T14:34:07;5.33;;;1.63;;
7150;SDS011;3617;48.836;9.172;2024-01-27T14:36:36;1.57;;;1.27;;
7150;SDS011;3617;48.836;9.172;2024-01-27T14:39:03;1.90;;;1.63;;
7150;SDS011;3617;48.836;9.172;2024-01-27T14:41:29;1.57;;;1.20;;
7150;SDS011;3617;48.836;9.172;2024-01-27T14:43:55;4.37;;;2.03;;
7150;SDS011;3617;48.836;9.172;2024-01-27T14:46:22;3.37;;;1.47;;
7150;SDS011;3617;48.836;9.172;2024-01-27T14:48:48;3.07;;;1.70;;
7150;SDS011;3617;48.836;9.172;2024-01-27T14:51:14;3.07;;;1.70;;
7150;SDS011;3617;48.836;9.172;2024-01-27T14:53:40;2.27;;;1.20;;
7150;SDS011;3617;48.836;9.172;2024-01-27T14:56:06;2.27;;;1.60;;
7150;SDS011;3617;48.836;9.172;2024-01-27T14:58:32;1.87;;;1.60;;
7150;SDS011;3617;48.836;9.172;2024-01-27T15:00:59;1.73;;;1.53;;
7150;SDS011;3617;48.836;9.172;2024-01-27T15:03:24;2.90;;;1.67;;
7150;SDS011;3617;48.836;9.172;2024-01-27T15:05:51;5.30;;;1.80;;
7150;SDS011;3617;48.836;9.172;2024-01-27T15:08:17;1.43;;;1.33;;
7150;SDS011;3617;48.836;9.172;2024-01-27T15:10:44;2.47;;;1.53;;